Time;durP1;ratioP1;P1;durP2;ratioP2;P2;SDS_P1;SDS_P2;PMS_P1;PMS_P2;Temp;Humidity;BMP_temperature;BMP_pressure;BME280_temperature;BME280_humidity;BME280_pressure;Samples;Min_cycle;Max_cycle;Signal;HPM_P1;HPM_P2
2023/01/15 00:16:15;;;;;;;1.10;0.60;;;;;;;8.83;100.00;97542.28;5014194;28;20201;-80
2023/01/15 00:18:44;;;;;;;0.50;0.33;;;;;;;8.86;100.00;97536.72;5031106;28;20198;-79
2023/01/15 00:21:13;;;;;;;0.30;0.30;;;;;;;8.79;100.00;97557.53;5028511;28;20202;-79
2023/01/15 00:29:16;;;;;;;0.93;0.50;;;;;;;8.63;100.00;97546.56;5033827;28;20216;-79
2023/01/15 00:31:53;;;;;;;0.83;0.60;;;;;;;8.51;100.00;97542.28;4980669;28;20248;-79
2023/01/15 00:34:22;;;;;;;0.50;0.40;;;;;;;8.55;100.00;97534.00;5028866;28;20209;-79
2023/01/15 00:36:50;;;;;;;1.83;1.30;;;;;;;8.38;100.00;97549.50;5032278;28;20194;-80
2023/01/15 00:39:19;;;;;;;1.73;1.07;;;;;;;8.52;100.00;97533.41;4998972;28;20197;-80
2023/01/15 00:41:48;;;;;;;2.47;0.93;;;;;;;8.43;100.00;97542.91;5027598;28;20259;-80
2023/01/15 00:44:18;;;;;;;2.23;1.00;;;;;;;8.38;100.00;97544.22;5029540;28;20248;-80
2023/01/15 00:46:51;;;;;;;1.40;0.93;;;;;;;8.55;100.00;97547.19;5032853;28;20216;-79
2023/01/15 00:49:19;;;;;;;1.83;1.17;;;;;;;8.55;100.00;97552.47;5027861;28;20200;-80
2023/01/15 00:51:49;;;;;;;2.67;0.80;;;;;;;8.59;100.00;97550.44;5029494;28;20217;-80
2023/01/15 00:54:25;;;;;;;0.77;0.70;;;;;;;8.59;100.00;97545.16;5029455;28;20194;-80
2023/01/15 00:56:57;;;;;;;2.73;0.83;;;;;;;8.59;100.00;97539.88;5027041;28;20190;-80
2023/01/15 00:59:28;;;;;;;1.30;1.00;;;;;;;8.64;100.00;97542.97;5033038;28;20197;-79
2023/01/15 01:01:59;;;;;;;1.00;0.63;;;;;;;8.64;100.00;97544.75;5022253;28;20289;-80
2023/01/15 01:04:29;;;;;;;2.53;1.00;;;;;;;8.64;100.00;97558.78;5027500;28;20194;-80
2023/01/15 01:06:58;;;;;;;1.20;0.57;;;;;;;8.66;100.00;97551.56;5029651;28;20193;-80
2023/01/15 01:09:27;;;;;;;1.80;0.60;;;;;;;8.64;100.00;97563.22;5025548;28;20202;-80
2023/01/15 01:11:55;;;;;;;0.60;0.60;;;;;;;8.80;100.00;97574.22;5027504;28;20276;-80
2023/01/15 01:14:24;;;;;;;0.47;0.40;;;;;;;8.74;100.00;97574.72;5027222;28;20228;-80
2023/01/15 01:16:52;;;;;;;2.13;0.50;;;;;;;8.77;100.00;97574.44;4949839;28;20192;-80
2023/01/15 01:19:26;;;;;;;1.67;0.60;;;;;;;8.75;100.00;97571.94;4949519;29;20232;-80
2023/01/15 01:21:56;;;;;;;1.40;0.60;;;;;;;8.66;100.00;97580.59;4945883;29;20259;-80
2023/01/15 01:24:25;;;;;;;2.83;0.63;;;;;;;8.70;100.00;97579.41;4949596;28;20197;-79
2023/01/15 01:26:54;;;;;;;2.53;0.53;;;;;;;8.66;100.00;97582.41;4944538;29;20252;-80
2023/01/15 01:29:24;;;;;;;1.07;0.70;;;;;;;8.68;100.00;97588.41;4950184;29;20660;-79
2023/01/15 01:31:53;;;;;;;1.40;0.77;;;;;;;8.61;100.00;97580.16;4951994;29;20337;-79
2023/01/15 01:34:21;;;;;;;0.63;0.60;;;;;;;8.64;100.00;97582.53;4969652;28;20198;-80
2023/01/15 01:36:52;;;;;;;1.13;0.70;;;;;;;8.62;100.00;97594.19;5025238;28;20223;-80
2023/01/15 01:39:20;;;;;;;0.50;0.43;;;;;;;8.60;100.00;97594.31;5027285;28;20209;-79
2023/01/15 01:41:48;;;;;;;0.80;0.60;;;;;;;8.55;100.00;97599.13;5026605;28;20204;-80
2023/01/15 01:44:54;;;;;;;0.57;0.57;;;;;;;8.41;100.00;97600.25;5026293;28;20244;-80
2023/01/15 01:47:26;;;;;;;0.60;0.60;;;;;;;8.35;100.00;97615.72;5029488;28;20213;-80
2023/01/15 01:50:04;;;;;;;1.07;0.40;;;;;;;8.23;100.00;97615.69;5031553;28;20191;-80
2023/01/15 01:52:44;;;;;;;1.63;0.43;;;;;;;8.15;100.00;97615.47;5026237;28;20214;-80
2023/01/15 01:55:18;;;;;;;0.40;0.40;;;;;;;8.11;100.00;97618.47;5029194;28;20229;-79
2023/01/15 01:57:54;;;;;;;1.60;0.50;;;;;;;8.10;100.00;97616.78;5032582;28;20227;-80
2023/01/15 02:00:24;;;;;;;0.57;0.40;;;;;;;8.04;100.00;97623.38;5025687;28;20194;-80
2023/01/15 02:02:54;;;;;;;0.30;0.30;;;;;;;8.00;100.00;97627.19;5027696;28;20280;-80
2023/01/15 02:05:29;;;;;;;1.00;0.20;;;;;;;8.02;100.00;97636.69;5026808;28;20285;-80
2023/01/15 02:08:01;;;;;;;0.83;0.30;;;;;;;7.98;100.00;97623.84;5032201;28;20241;-79
2023/01/15 02:10:31;;;;;;;1.53;0.30;;;;;;;7.81;100.00;97632.22;5023638;28;20190;-80
2023/01/15 02:13:07;;;;;;;0.33;0.33;;;;;;;7.73;100.00;97627.56;4966718;28;20219;-80
2023/01/15 02:15:40;;;;;;;0.83;0.40;;;;;;;7.62;100.00;97635.44;4968622;28;20204;-80
2023/01/15 02:18:16;;;;;;;0.50;0.20;;;;;;;7.52;100.00;97635.28;4965651;28;20203;-80
2023/01/15 02:20:50;;;;;;;0.50;0.30;;;;;;;7.43;100.00;97643.91;4989149;28;20687;-79
2023/01/15 02:23:38;;;;;;;0.20;0.20;;;;;;;7.32;100.00;97628.06;4975393;28;20199;-80
2023/01/15 02:26:30;;;;;;;0.20;0.20;;;;;;;7.18;100.00;97622.06;4971791;28;20204;-80
2023/01/15 02:29:02;;;;;;;0.77;0.30;;;;;;;7.08;100.00;97631.59;4936859;28;20279;-80
2023/01/15 02:31:37;;;;;;;0.20;0.20;;;;;;;7.05;100.00;97629.19;5007089;28;20244;-80
2023/01/15 02:34:17;;;;;;;0.17;0.17;;;;;;;6.95;100.00;97616.81;5034331;28;20221;-80
2023/01/15 02:36:50;;;;;;;0.20;0.17;;;;;;;6.91;100.00;97618.00;5032876;28;20230;-80
2023/01/15 02:39:23;;;;;;;0.53;0.10;;;;;;;6.87;100.00;97615.59;5030649;28;20237;-79
2023/01/15 02:42:01;;;;;;;0.50;0.20;;;;;;;6.82;100.00;97603.72;5026545;28;20190;-80
2023/01/15 02:44:41;;;;;;;0.50;0.30;;;;;;;6.78;100.00;97600.50;5031487;28;20668;-80
2023/01/15 02:47:11;;;;;;;0.20;0.20;;;;;;;6.72;100.00;97595.66;5013073;28;20198;-79
2023/01/15 02:49:42;;;;;;;0.23;0.20;;;;;;;6.65;100.00;97614.66;5035296;28;20695;-79
2023/01/15 02:52:27;;;;;;;0.20;0.20;;;;;;;6.62;100.00;97604.34;5028806;28;20681;-80
2023/01/15 02:55:00;;;;;;;0.23;0.20;;;;;;;6.60;100.00;97597.41;5025537;28;20230;-79
2023/01/15 02:57:33;;;;;;;0.30;0.30;;;;;;;6.60;100.00;97605.31;5026526;28;20684;-79
2023/01/15 03:00:07;;;;;;;0.47;0.37;;;;;;;6.54;100.00;97615.44;5028843;28;20201;-80
2023/01/15 03:02:41;;;;;;;0.20;0.20;;;;;;;6.51;100.00;97618.28;5034460;28;20201;-79
2023/01/15 03:05:17;;;;;;;0.20;0.20;;;;;;;6.49;100.00;97626.28;5026372;28;20236;-80
2023/01/15 03:07:50;;;;;;;0.20;0.20;;;;;;;6.47;100.00;97619.47;5028867;28;20202;-80
2023/01/15 03:10:19;;;;;;;0.20;0.20;;;;;;;6.43;100.00;97634.63;5025813;28;20224;-79
2023/01/15 03:13:06;;;;;;;0.23;0.20;;;;;;;6.39;100.00;97630.53;5027383;28;20276;-79
2023/01/15 03:18:45;;;;;;;0.93;0.30;;;;;;;6.34;100.00;97639.69;5031663;28;20201;-80
2023/01/15 03:21:22;;;;;;;0.37;0.20;;;;;;;6.34;100.00;97647.56;5020535;28;20205;-80
2023/01/15 03:23:54;;;;;;;0.30;0.30;;;;;;;6.23;100.00;97645.72;5027258;28;20193;-80
2023/01/15 03:26:23;;;;;;;0.50;0.30;;;;;;;6.22;100.00;97631.72;5030406;28;20255;-80
2023/01/15 03:28:52;;;;;;;0.40;0.20;;;;;;;6.13;100.00;97627.13;5027143;28;20202;-80
2023/01/15 03:31:24;;;;;;;1.20;0.20;;;;;;;6.13;100.00;97640.25;5020362;28;20201;-79
2023/01/15 03:33:54;;;;;;;0.90;0.20;;;;;;;6.02;100.00;97640.19;5032649;28;20218;-80
2023/01/15 03:36:23;;;;;;;0.10;0.10;;;;;;;5.96;100.00;97635.34;5029194;28;20248;-80
2023/01/15 03:38:52;;;;;;;0.40;0.30;;;;;;;5.98;100.00;97650.06;5026396;28;20209;-79
2023/01/15 03:41:26;;;;;;;0.60;0.30;;;;;;;5.93;100.00;97639.03;5024964;28;20264;-79
2023/01/15 03:44:08;;;;;;;0.40;0.30;;;;;;;5.88;100.00;97635.84;5031967;28;20200;-80
2023/01/15 03:46:51;;;;;;;0.77;0.40;;;;;;;5.83;100.00;97639.75;5032550;28;20236;-79
2023/01/15 03:49:27;;;;;;;0.40;0.20;;;;;;;5.83;100.00;97647.63;5030156;28;20265;-80
2023/01/15 03:52:03;;;;;;;0.77;0.33;;;;;;;5.79;100.00;97644.38;5025894;28;20189;-79
2023/01/15 03:54:43;;;;;;;0.90;0.30;;;;;;;5.80;100.00;97630.31;5022576;28;20267;-79
2023/01/15 03:57:18;;;;;;;0.83;0.30;;;;;;;5.77;100.00;97642.78;5027387;28;20198;-79
2023/01/15 03:59:54;;;;;;;1.07;0.47;;;;;;;5.77;100.00;97658.56;5031648;28;20240;-79
2023/01/15 04:02:30;;;;;;;0.70;0.30;;;;;;;5.77;100.00;97648.88;5026027;28;20247;-80
2023/01/15 04:05:01;;;;;;;0.73;0.30;;;;;;;5.70;100.00;97643.22;5032556;28;20189;-80
2023/01/15 04:07:31;;;;;;;1.10;0.30;;;;;;;5.74;100.00;97654.34;5028952;28;20232;-79
2023/01/15 04:10:00;;;;;;;0.43;0.20;;;;;;;5.74;100.00;97651.72;5024332;28;20198;-79
2023/01/15 04:12:29;;;;;;;1.93;0.30;;;;;;;5.71;100.00;97659.84;5031868;28;20225;-79
2023/01/15 04:14:58;;;;;;;0.50;0.40;;;;;;;5.68;100.00;97650.34;5026487;28;20198;-80
2023/01/15 04:17:31;;;;;;;0.30;0.30;;;;;;;5.80;100.00;97668.88;5025669;28;20198;-79
2023/01/15 04:20:01;;;;;;;2.40;0.40;;;;;;;5.77;100.00;97664.63;4990368;28;20296;-80
2023/01/15 04:22:31;;;;;;;0.63;0.40;;;;;;;5.60;100.00;97659.72;4989962;28;20230;-80
2023/01/15 04:24:59;;;;;;;1.27;0.27;;;;;;;5.75;100.00;97658.66;4987200;28;20195;-80
2023/01/15 04:27:29;;;;;;;3.47;0.40;;;;;;;5.81;100.00;97670.53;4987215;28;20691;-79
2023/01/15 04:29:59;;;;;;;0.27;0.27;;;;;;;5.68;100.00;97683.66;4988281;28;20232;-80
2023/01/15 04:32:28;;;;;;;0.80;0.30;;;;;;;5.77;100.00;97666.44;4988726;28;20214;-80
2023/01/15 04:34:57;;;;;;;1.60;0.30;;;;;;;5.40;100.00;97658.41;4989768;28;20226;-80
2023/01/15 04:37:26;;;;;;;0.63;0.30;;;;;;;5.45;100.00;97670.31;4988746;28;20198;-80
2023/01/15 04:39:56;;;;;;;0.77;0.57;;;;;;;5.51;100.00;97682.19;4986040;28;20191;-80
2023/01/15 04:45:17;;;;;;;1.10;0.40;;;;;;;5.51;100.00;97692.69;4975216;28;20290;-80
2023/01/15 04:47:48;;;;;;;0.50;0.30;;;;;;;5.40;100.00;97680.28;5029546;28;20190;-80
2023/01/15 04:50:18;;;;;;;0.93;0.40;;;;;;;5.17;100.00;97691.44;4967460;28;20212;-80
2023/01/15 04:52:47;;;;;;;1.47;0.40;;;;;;;5.24;100.00;97689.28;4960499;28;20239;-80
2023/01/15 04:55:17;;;;;;;0.70;0.30;;;;;;;5.14;100.00;97692.50;4932715;29;20241;-80
2023/01/15 04:57:46;;;;;;;0.47;0.40;;;;;;;5.09;100.00;97694.56;4932286;29;20264;-80
2023/01/15 05:00:18;;;;;;;0.73;0.40;;;;;;;5.18;100.00;97686.09;4915206;29;20654;-80
2023/01/15 05:02:54;;;;;;;0.53;0.40;;;;;;;5.17;100.00;97699.31;4911796;29;20210;-79
2023/01/15 05:05:24;;;;;;;1.53;0.50;;;;;;;4.93;100.00;97688.66;4910640;29;20208;-80
2023/01/15 05:07:52;;;;;;;0.20;0.20;;;;;;;5.07;100.00;97691.22;4871711;29;20208;-81
2023/01/15 05:10:21;;;;;;;0.87;0.50;;;;;;;5.10;100.00;97693.63;4928835;29;20241;-80
2023/01/15 05:12:50;;;;;;;0.93;0.50;;;;;;;5.12;100.00;97704.06;4928969;29;20197;-80
2023/01/15 05:15:19;;;;;;;2.00;0.30;;;;;;;5.17;100.00;97707.19;4930982;29;20208;-80
2023/01/15 05:17:51;;;;;;;1.40;0.30;;;;;;;5.13;100.00;97709.19;4933249;28;20235;-79
2023/01/15 05:20:20;;;;;;;1.37;0.40;;;;;;;5.08;100.00;97715.66;4977045;28;20185;-80
2023/01/15 05:22:49;;;;;;;1.60;0.43;;;;;;;5.01;100.00;97712.59;5034805;28;20205;-80
2023/01/15 05:25:18;;;;;;;2.60;0.40;;;;;;;5.04;100.00;97722.06;5025376;28;20227;-80
2023/01/15 05:27:49;;;;;;;0.50;0.40;;;;;;;5.03;100.00;97715.97;4986189;28;20230;-80
2023/01/15 05:30:19;;;;;;;1.60;0.50;;;;;;;4.97;100.00;97705.03;4998523;28;20261;-80
2023/01/15 05:32:47;;;;;;;1.03;0.40;;;;;;;4.92;100.00;97718.44;4995488;28;20218;-80
2023/01/15 05:35:19;;;;;;;1.00;0.40;;;;;;;4.89;100.00;97713.41;4991761;28;20346;-80
2023/01/15 05:37:49;;;;;;;2.23;0.50;;;;;;;4.83;100.00;97714.66;4988025;28;20198;-80
2023/01/15 05:40:17;;;;;;;1.40;0.40;;;;;;;4.83;100.00;97730.38;4967862;28;20203;-81
2023/01/15 05:42:46;;;;;;;1.37;0.50;;;;;;;4.71;100.00;97740.78;4969985;28;20651;-81
2023/01/15 05:45:16;;;;;;;1.27;0.40;;;;;;;4.71;100.00;97738.16;4973726;28;20242;-80
2023/01/15 05:47:45;;;;;;;0.57;0.37;;;;;;;4.90;100.00;97738.69;4966523;28;20675;-80
2023/01/15 05:50:14;;;;;;;3.10;0.63;;;;;;;4.83;100.00;97748.75;4971946;28;20195;-80
2023/01/15 05:52:44;;;;;;;1.70;0.50;;;;;;;4.78;100.00;97757.81;4946288;28;20187;-80
2023/01/15 05:55:14;;;;;;;2.47;0.60;;;;;;;4.87;100.00;97746.75;4969196;28;20239;-80
2023/01/15 05:57:42;;;;;;;0.73;0.47;;;;;;;4.66;100.00;97748.97;4960238;28;20207;-81
2023/01/15 06:00:14;;;;;;;2.90;0.40;;;;;;;4.72;100.00;97764.28;5012469;28;20260;-80
2023/01/15 06:02:49;;;;;;;0.97;0.30;;;;;;;4.70;100.00;97762.72;5014319;28;20210;-80
2023/01/15 06:05:19;;;;;;;0.77;0.40;;;;;;;4.72;100.00;97758.19;5013555;28;20202;-79
2023/01/15 06:07:53;;;;;;;0.20;0.20;;;;;;;4.65;100.00;97763.00;5012518;28;20193;-80
2023/01/15 06:10:24;;;;;;;0.40;0.30;;;;;;;4.64;100.00;97769.19;5008563;28;20198;-80
2023/01/15 06:12:53;;;;;;;0.40;0.40;;;;;;;4.51;100.00;97758.59;5010396;28;20194;-80
2023/01/15 06:15:22;;;;;;;1.03;0.47;;;;;;;4.59;100.00;97771.25;4984021;28;20262;-79
2023/01/15 06:17:54;;;;;;;0.63;0.30;;;;;;;4.66;100.00;97764.69;4991675;28;20199;-80
2023/01/15 06:20:22;;;;;;;0.53;0.30;;;;;;;4.74;100.00;97770.31;4993306;28;20222;-79
2023/01/15 06:22:52;;;;;;;0.20;0.20;;;;;;;4.59;100.00;97774.72;4987826;28;20282;-80
2023/01/15 06:25:22;;;;;;;0.93;0.40;;;;;;;4.58;100.00;97777.44;4985889;28;20274;-80
2023/01/15 06:27:51;;;;;;;0.80;0.47;;;;;;;4.60;100.00;97773.78;4991021;28;20262;-80
2023/01/15 06:30:19;;;;;;;0.67;0.40;;;;;;;4.52;100.00;97755.03;4991858;28;20666;-81
2023/01/15 06:32:50;;;;;;;2.13;0.50;;;;;;;4.57;100.00;97755.63;4997163;28;20190;-80
2023/01/15 06:35:19;;;;;;;1.13;0.40;;;;;;;4.55;100.00;97760.13;5012502;28;20210;-80
2023/01/15 06:37:51;;;;;;;1.77;0.53;;;;;;;4.66;100.00;97748.97;4971169;28;20212;-80
2023/01/15 06:40:28;;;;;;;2.53;0.50;;;;;;;4.59;100.00;97752.91;4969306;28;20287;-80
2023/01/15 06:48:33;;;;;;;1.00;0.40;;;;;;;4.61;100.00;97766.75;4974482;28;20251;-80
2023/01/15 06:51:03;;;;;;;1.20;0.60;;;;;;;4.58;100.00;97764.31;4917275;29;20240;-80
2023/01/15 06:53:32;;;;;;;0.70;0.40;;;;;;;4.58;100.00;97772.19;4917207;29;20197;-80
2023/01/15 06:56:03;;;;;;;0.87;0.40;;;;;;;4.44;100.00;97780.03;4934902;29;20228;-80
2023/01/15 06:58:32;;;;;;;0.60;0.40;;;;;;;4.46;100.00;97786.91;4908782;29;20197;-79
2023/01/15 07:01:09;;;;;;;2.57;0.70;;;;;;;4.54;100.00;97791.69;4952137;29;20208;-79
2023/01/15 07:03:38;;;;;;;2.27;0.57;;;;;;;4.39;100.00;97787.38;4954239;29;20245;-80
2023/01/15 07:06:10;;;;;;;2.57;0.60;;;;;;;4.57;100.00;97789.69;4952033;29;20211;-79
2023/01/15 07:08:40;;;;;;;2.83;0.47;;;;;;;4.60;100.00;97792.13;4924645;29;20204;-80
2023/01/15 07:11:13;;;;;;;0.87;0.40;;;;;;;4.59;100.00;97785.19;4946520;29;20209;-80
2023/01/15 07:13:43;;;;;;;1.40;0.70;;;;;;;4.40;100.00;97784.66;4949237;29;20249;-80
2023/01/15 07:16:27;;;;;;;1.43;0.40;;;;;;;4.60;100.00;97778.16;4952323;29;20210;-80
2023/01/15 07:18:56;;;;;;;1.53;0.53;;;;;;;4.37;100.00;97781.38;4947785;29;20228;-80
2023/01/15 07:21:25;;;;;;;2.30;0.60;;;;;;;4.36;100.00;97784.94;4953131;29;20322;-80
2023/01/15 07:23:55;;;;;;;1.57;0.60;;;;;;;4.52;100.00;97783.88;4953826;29;20200;-80
2023/01/15 07:26:25;;;;;;;2.00;0.40;;;;;;;4.52;100.00;97786.50;4944950;29;20203;-80
2023/01/15 07:28:53;;;;;;;2.60;0.53;;;;;;;4.48;100.00;97795.50;4951157;29;20256;-80
2023/01/15 07:31:22;;;;;;;1.47;0.57;;;;;;;4.47;100.00;97795.59;4953048;29;20652;-80
2023/01/15 07:33:50;;;;;;;1.23;0.40;;;;;;;4.30;100.00;97792.22;4995928;28;20225;-80
2023/01/15 07:36:21;;;;;;;0.73;0.50;;;;;;;4.48;100.00;97803.38;4933556;29;20266;-80
2023/01/15 07:38:49;;;;;;;1.07;0.60;;;;;;;4.50;100.00;97793.63;4932911;29;20197;-80
2023/01/15 07:49:47;;;;;;;3.33;0.60;;;;;;;4.35;100.00;97801.59;4915919;29;20201;-80
2023/01/15 07:52:18;;;;;;;1.83;0.57;;;;;;;4.30;100.00;97815.81;4913127;29;20296;-80
2023/01/15 07:54:50;;;;;;;1.13;0.50;;;;;;;4.28;100.00;97817.69;4946680;28;20321;-81
2023/01/15 07:57:22;;;;;;;1.40;0.50;;;;;;;4.28;100.00;97812.44;4937862;28;20251;-80
2023/01/15 07:59:53;;;;;;;4.30;0.70;;;;;;;4.12;100.00;97818.69;4970586;28;20201;-80
2023/01/15 08:02:21;;;;;;;2.43;0.80;;;;;;;4.07;100.00;97826.84;4932444;29;20201;-80
2023/01/15 08:04:50;;;;;;;2.23;0.47;;;;;;;4.25;100.00;97828.38;4931646;29;20346;-80
2023/01/15 08:07:19;;;;;;;0.97;0.50;;;;;;;4.06;100.00;97830.41;4944071;28;20211;-80
2023/01/15 08:09:47;;;;;;;2.73;0.50;;;;;;;4.21;100.00;97842.56;4967171;28;20200;-80
2023/01/15 08:15:15;;;;;;;1.10;0.50;;;;;;;4.13;100.00;97844.78;4972900;28;20314;-79
2023/01/15 08:17:48;;;;;;;1.47;0.50;;;;;;;4.09;100.00;97859.03;4967336;28;20203;-79
2023/01/15 08:20:19;;;;;;;0.33;0.33;;;;;;;3.99;100.00;97863.13;4986590;28;20252;-80
2023/01/15 08:22:48;;;;;;;0.57;0.40;;;;;;;3.95;100.00;97862.44;5009311;28;20197;-80
2023/01/15 08:25:18;;;;;;;0.40;0.40;;;;;;;4.01;100.00;97871.72;5018816;28;20205;-80
2023/01/15 08:27:47;;;;;;;0.73;0.40;;;;;;;4.01;100.00;97882.19;5011090;28;20662;-80
2023/01/15 08:30:25;;;;;;;0.60;0.47;;;;;;;4.05;100.00;97881.06;5009106;28;20197;-80
2023/01/15 08:33:01;;;;;;;1.77;0.60;;;;;;;4.00;100.00;97877.91;5013481;28;20224;-80
2023/01/15 08:35:33;;;;;;;1.03;0.63;;;;;;;3.92;100.00;97882.72;5013003;28;20217;-80
2023/01/15 08:38:05;;;;;;;0.77;0.40;;;;;;;3.95;100.00;97899.09;4959617;28;20201;-79
2023/01/15 08:40:35;;;;;;;0.30;0.30;;;;;;;3.94;100.00;97905.28;5012127;28;20200;-80
2023/01/15 08:43:04;;;;;;;0.57;0.47;;;;;;;3.92;100.00;97901.06;5007981;28;20334;-80
2023/01/15 08:45:35;;;;;;;0.40;0.40;;;;;;;3.98;100.00;97898.09;5008015;28;20205;-80
2023/01/15 08:48:06;;;;;;;0.50;0.30;;;;;;;3.98;100.00;97908.56;5006346;28;20281;-80
2023/01/15 08:50:34;;;;;;;0.40;0.30;;;;;;;3.91;100.00;97913.31;5008427;28;20194;-80
2023/01/15 08:53:04;;;;;;;0.53;0.40;;;;;;;3.94;100.00;97902.66;4991482;28;20195;-80
2023/01/15 08:55:32;;;;;;;0.40;0.40;;;;;;;3.92;100.00;97901.06;4987603;28;20219;-80
2023/01/15 08:58:01;;;;;;;0.47;0.40;;;;;;;3.93;100.00;97932.41;5004342;28;20257;-80
2023/01/15 09:00:29;;;;;;;0.50;0.50;;;;;;;3.93;100.00;97924.53;4998964;28;20198;-80
2023/01/15 09:03:00;;;;;;;0.40;0.30;;;;;;;3.95;100.00;97919.22;5000272;28;20201;-79
2023/01/15 09:05:29;;;;;;;0.63;0.40;;;;;;;4.03;100.00;97915.22;5004154;28;20194;-80
2023/01/15 09:07:59;;;;;;;1.17;0.40;;;;;;;4.00;100.00;97917.19;5005105;28;20198;-79
2023/01/15 09:10:28;;;;;;;0.40;0.40;;;;;;;3.91;100.00;97922.94;5009876;28;20209;-80
2023/01/15 09:12:59;;;;;;;0.50;0.40;;;;;;;3.90;100.00;97916.03;5032718;28;20193;-80
2023/01/15 09:15:27;;;;;;;0.93;0.40;;;;;;;3.87;100.00;97922.28;5027277;28;20217;-79
2023/01/15 09:17:56;;;;;;;0.90;0.50;;;;;;;3.79;100.00;97910.56;5032574;28;20201;-80
2023/01/15 09:20:26;;;;;;;0.87;0.30;;;;;;;3.70;100.00;97915.38;5026397;28;20284;-80
2023/01/15 09:22:55;;;;;;;1.00;0.63;;;;;;;3.80;100.00;97928.78;5022921;28;20216;-80
2023/01/15 09:25:24;;;;;;;13.27;8.90;;;;;;;3.84;100.00;97914.59;5022054;28;20277;-80
2023/01/15 09:27:55;;;;;;;1.07;0.40;;;;;;;3.95;100.00;97908.72;5030062;28;20193;-80
2023/01/15 09:30:24;;;;;;;3.40;1.80;;;;;;;3.98;100.00;97909.41;5032526;28;20213;-80
2023/01/15 09:32:53;;;;;;;0.93;0.67;;;;;;;4.04;100.00;97921.31;5032272;28;20189;-81
2023/01/15 09:35:23;;;;;;;5.27;2.70;;;;;;;4.13;100.00;97925.16;5027332;28;20221;-81
2023/01/15 09:37:55;;;;;;;15.37;9.80;;;;;;;4.09;100.00;97926.28;5025184;28;20197;-80
2023/01/15 09:40:41;;;;;;;1.27;1.07;;;;;;;4.19;100.00;97937.94;5025855;28;20197;-79
2023/01/15 09:43:24;;;;;;;2.03;1.43;;;;;;;4.08;100.00;97940.31;5029412;28;20360;-80
2023/01/15 09:46:00;;;;;;;1.57;0.50;;;;;;;4.21;100.00;97936.06;5026552;28;20202;-80
2023/01/15 09:48:42;;;;;;;0.50;0.50;;;;;;;4.17;100.00;97916.22;5027948;28;20193;-80
2023/01/15 09:51:19;;;;;;;5.53;4.77;;;;;;;4.21;100.00;97922.94;5026446;28;20192;-81
2023/01/15 09:54:04;;;;;;;2.50;1.50;;;;;;;4.35;100.00;97938.72;4992054;28;20194;-80
2023/01/15 09:56:36;;;;;;;4.73;0.50;;;;;;;4.46;100.00;97933.69;5017906;28;20769;-81
2023/01/15 09:59:13;;;;;;;0.60;0.47;;;;;;;4.34;100.00;97929.16;5024734;28;20201;-79
2023/01/15 10:01:44;;;;;;;0.90;0.57;;;;;;;4.48;100.00;97930.97;5024595;28;20198;-80
2023/01/15 10:04:32;;;;;;;1.37;0.60;;;;;;;4.47;100.00;97932.75;5027321;28;20217;-80
2023/01/15 10:07:11;;;;;;;1.33;1.00;;;;;;;4.60;100.00;97932.88;5032385;28;20190;-80
2023/01/15 10:09:45;;;;;;;1.70;0.80;;;;;;;4.69;100.00;97913.97;5011140;28;20246;-80
2023/01/15 10:12:35;;;;;;;1.90;1.33;;;;;;;4.73;100.00;97917.22;5029373;28;20209;-80
2023/01/15 10:15:15;;;;;;;1.90;1.13;;;;;;;4.76;100.00;97935.44;5031952;28;20196;-80
2023/01/15 10:17:45;;;;;;;2.23;1.10;;;;;;;4.78;100.00;97941.41;5030039;28;20507;-79
2023/01/15 10:20:24;;;;;;;2.53;1.40;;;;;;;4.80;100.00;97937.75;5023339;28;20202;-80
2023/01/15 10:23:16;;;;;;;3.57;1.03;;;;;;;4.93;100.00;97932.63;5006076;28;20190;-80
2023/01/15 10:25:50;;;;;;;1.10;0.60;;;;;;;4.89;100.00;97928.50;5002663;28;20191;-80
2023/01/15 10:28:23;;;;;;;3.57;0.97;;;;;;;5.02;100.00;97941.69;5007816;28;20197;-80
2023/01/15 10:30:55;;;;;;;5.07;1.03;;;;;;;5.11;100.00;97943.75;5000147;28;20201;-80
2023/01/15 10:33:52;;;;;;;2.00;1.17;;;;;;;5.06;100.00;97938.81;4989937;28;20242;-80
2023/01/15 10:36:28;;;;;;;3.30;1.60;;;;;;;5.03;100.00;97948.66;4983279;28;20234;-80
2023/01/15 10:39:04;;;;;;;1.33;0.80;;;;;;;5.03;100.00;97939.00;4984597;28;20203;-80
2023/01/15 10:41:52;;;;;;;1.43;0.60;;;;;;;5.08;100.00;97936.09;5018698;28;20233;-80
2023/01/15 10:44:28;;;;;;;1.10;0.70;;;;;;;5.12;100.00;97938.44;5028331;28;20660;-80
2023/01/15 10:47:08;;;;;;;1.70;1.20;;;;;;;5.21;100.00;97937.03;5032133;28;20304;-81
2023/01/15 10:49:50;;;;;;;2.03;1.00;;;;;;;5.29;100.00;97926.88;4942402;29;20205;-80
2023/01/15 10:52:29;;;;;;;9.20;6.30;;;;;;;5.29;100.00;97921.63;4906265;29;20209;-81
2023/01/15 10:55:08;;;;;;;11.00;5.10;;;;;;;5.26;100.00;97913.94;4895942;29;20244;-81
2023/01/15 10:57:48;;;;;;;3.63;1.17;;;;;;;5.27;100.00;97926.13;4893911;29;20234;-80
2023/01/15 11:00:28;;;;;;;4.40;1.40;;;;;;;5.27;100.00;97920.88;4894609;29;20216;-81
2023/01/15 11:03:03;;;;;;;1.77;1.27;;;;;;;5.30;100.00;97919.84;4893006;29;20222;-81
2023/01/15 11:05:33;;;;;;;2.33;1.40;;;;;;;5.22;100.00;97940.50;4895466;29;20229;-82
2023/01/15 11:08:07;;;;;;;2.10;0.87;;;;;;;5.31;100.00;97916.31;4913376;29;20720;-81
2023/01/15 11:10:57;;;;;;;2.07;0.60;;;;;;;5.39;100.00;97903.50;4953624;29;20299;-81
2023/01/15 11:19:39;;;;;;;1.77;0.90;;;;;;;5.38;100.00;97917.59;4979574;28;20232;-82
2023/01/15 11:22:14;;;;;;;1.30;0.80;;;;;;;5.37;100.00;97918.53;4995171;28;20253;-79
2023/01/15 11:24:50;;;;;;;1.83;1.03;;;;;;;5.44;100.00;97922.47;4993575;28;20234;-81
2023/01/15 11:27:21;;;;;;;1.87;0.77;;;;;;;5.52;100.00;97917.56;4986344;28;20301;-81
2023/01/15 11:29:56;;;;;;;2.63;0.90;;;;;;;5.50;100.00;97923.84;4989150;28;20207;-81
2023/01/15 11:32:29;;;;;;;3.57;0.87;;;;;;;5.56;100.00;97920.84;5027938;28;20233;-81
2023/01/15 11:34:59;;;;;;;2.50;1.07;;;;;;;5.74;100.00;97906.53;5027191;28;20190;-81
2023/01/15 11:37:29;;;;;;;4.20;2.93;;;;;;;5.55;100.00;97912.13;5028628;28;20260;-81
2023/01/15 11:40:05;;;;;;;3.43;1.47;;;;;;;5.51;100.00;97922.94;5029612;28;20212;-82
2023/01/15 11:51:07;;;;;;;4.40;1.20;;;;;;;5.67;100.00;97923.59;5035688;28;20193;-81
2023/01/15 11:53:40;;;;;;;2.63;1.17;;;;;;;5.71;100.00;97930.38;5007850;28;20198;-81
2023/01/15 11:56:15;;;;;;;4.27;0.70;;;;;;;5.75;100.00;97943.19;5005915;28;20272;-80
2023/01/15 11:58:48;;;;;;;2.73;1.00;;;;;;;5.60;100.00;97924.97;5006280;28;20198;-80
2023/01/15 12:01:26;;;;;;;2.20;0.70;;;;;;;5.74;100.00;97920.50;5012534;28;20202;-81
2023/01/15 12:03:57;;;;;;;10.90;8.30;;;;;;;5.71;100.00;97927.75;5009241;28;20206;-81
2023/01/15 12:06:28;;;;;;;11.13;5.87;;;;;;;5.62;100.00;97923.09;4970609;28;20198;-81
2023/01/15 12:09:06;;;;;;;8.47;5.37;;;;;;;5.87;100.00;97912.66;4971326;28;20204;-81
2023/01/15 12:11:59;;;;;;;2.60;1.30;;;;;;;5.77;100.00;97906.31;4967733;28;20274;-80
2023/01/15 12:14:51;;;;;;;1.67;0.90;;;;;;;5.84;100.00;97906.78;4968087;28;20200;-80
2023/01/15 12:17:42;;;;;;;3.77;1.03;;;;;;;5.95;100.00;97913.03;4970783;28;20216;-81
2023/01/15 12:20:24;;;;;;;1.97;0.93;;;;;;;5.97;100.00;97905.06;4989353;28;20199;-81
2023/01/15 12:23:30;;;;;;;2.97;0.90;;;;;;;6.09;100.00;97909.53;4990694;28;20187;-81
2023/01/15 12:26:03;;;;;;;3.77;1.03;;;;;;;6.35;100.00;97888.53;5031533;28;20190;-80
2023/01/15 12:28:38;;;;;;;1.93;0.90;;;;;;;6.11;100.00;97885.75;5012606;28;20198;-81
2023/01/15 12:31:11;;;;;;;2.80;0.97;;;;;;;6.29;100.00;97877.50;5004228;28;20560;-80
2023/01/15 12:33:49;;;;;;;3.37;1.23;;;;;;;6.64;100.00;97879.50;5008481;28;20198;-81
2023/01/15 12:36:22;;;;;;;6.00;1.00;;;;;;;6.78;100.00;97873.31;5000964;28;20233;-83
2023/01/15 12:38:55;;;;;;;2.00;0.53;;;;;;;6.99;100.00;97871.78;5005532;28;20230;-81
2023/01/15 12:44:59;;;;;;;5.10;1.10;;;;;;;7.25;100.00;97869.97;4988534;28;20195;-81
2023/01/15 12:47:20;;;;;;;4.83;1.20;;;;;;;6.98;100.00;97883.28;5005822;28;20190;-81
2023/01/15 12:50:00;;;;;;;3.47;0.90;;;;;;;6.58;100.00;97866.78;5008769;28;20213;-81
2023/01/15 12:52:36;;;;;;;4.23;0.90;;;;;;;6.55;100.00;97865.19;5009899;28;20273;-81
2023/01/15 12:55:13;;;;;;;4.53;1.10;;;;;;;6.48;100.00;97873.63;5005492;28;20218;-80
2023/01/15 12:57:49;;;;;;;4.60;0.80;;;;;;;6.35;100.00;97867.50;5011183;28;20238;-79
2023/01/15 13:00:29;;;;;;;2.67;1.00;;;;;;;6.33;100.00;97857.06;5042759;28;20185;-78
2023/01/15 13:03:10;;;;;;;4.67;0.90;;;;;;;6.49;100.00;97877.94;5043434;28;20255;-80